sensor_id;sensor_type;location;lat;lon;timestamp;temperature;humidity
18876;DHT22;9570;50.854;13.778;2023-06-10T00:00:40;15.70;99.90
18876;DHT22;9570;50.854;13.778;2023-06-10T00:03:09;15.70;99.90
18876;DHT22;9570;50.854;13.778;2023-06-10T00:05:35;15.70;99.90
18876;DHT22;9570;50.854;13.778;2023-06-10T00:08:01;15.70;99.90
18876;DHT22;9570;50.854;13.778;2023-06-10T00:10:32;15.60;99.90
18876;DHT22;9570;50.854;13.778;2023-06-10T00:12:58;15.60;99.90
18876;DHT22;9570;50.854;13.778;2023-06-10T00:15:23;15.50;99.90
18876;DHT22;9570;50.854;13.778;2023-06-10T00:17:49;15.50;99.90
18876;DHT22;9570;50.854;13.778;2023-06-10T00:20:14;15.50;99.90
18876;DHT22;9570;50.854;13.778;2023-06-10T00:22:40;15.50;99.90
18876;DHT22;9570;50.854;13.778;2023-06-10T00:25:06;15.50;99.90
18876;DHT22;9570;50.854;13.778;2023-06-10T00:27:32;15.40;99.90
18876;DHT22;9570;50.854;13.778;2023-06-10T00:30:02;15.40;99.90
18876;DHT22;9570;50.854;13.778;2023-06-10T00:32:29;15.30;99.90
18876;DHT22;9570;50.854;13.778;2023-06-10T00:34:55;15.40;99.90
18876;DHT22;9570;50.854;13.778;2023-06-10T00:37:21;15.40;99.90
18876;DHT22;9570;50.854;13.778;2023-06-10T00:39:46;15.30;99.90
18876;DHT22;9570;50.854;13.778;2023-06-10T00:42:11;15.30;99.90
18876;DHT22;9570;50.854;13.778;2023-06-10T00:44:37;15.20;99.90
18876;DHT22;9570;50.854;13.778;2023-06-10T00:47:03;15.20;99.90
18876;DHT22;9570;50.854;13.778;2023-06-10T00:49:29;15.30;99.90
18876;DHT22;9570;50.854;13.778;2023-06-10T00:51:54;15.20;99.90
18876;DHT22;9570;50.854;13.778;2023-06-10T00:54:20;15.20;99.90
18876;DHT22;9570;50.854;13.778;2023-06-10T00:56:47;15.20;99.90
18876;DHT22;9570;50.854;13.778;2023-06-10T00:59:13;15.20;99.90
18876;DHT22;9570;50.854;13.778;2023-06-10T01:01:41;15.20;99.90
18876;DHT22;9570;50.854;13.778;2023-06-10T01:04:08;15.20;99.90
18876;DHT22;9570;50.854;13.778;2023-06-10T01:06:47;15.20;99.90
18876;DHT22;9570;50.854;13.778;2023-06-10T01:11:47;15.30;99.90
18876;DHT22;9570;50.854;13.778;2023-06-10T01:14:17;15.30;99.90
18876;DHT22;9570;50.854;13.778;2023-06-10T01:16:43;15.30;99.90
18876;DHT22;9570;50.854;13.778;2023-06-10T01:19:11;15.20;99.90
18876;DHT22;9570;50.854;13.778;2023-06-10T01:21:38;15.30;99.90
18876;DHT22;9570;50.854;13.778;2023-06-10T01:24:04;15.20;99.90
18876;DHT22;9570;50.854;13.778;2023-06-10T01:26:34;15.20;99.90
18876;DHT22;9570;50.854;13.778;2023-06-10T01:29:09;15.20;99.90
18876;DHT22;9570;50.854;13.778;2023-06-10T01:31:49;15.20;99.90
18876;DHT22;9570;50.854;13.778;2023-06-10T01:34:18;15.20;99.90
18876;DHT22;9570;50.854;13.778;2023-06-10T01:36:46;15.30;99.90
18876;DHT22;9570;50.854;13.778;2023-06-10T01:39:14;15.30;99.90
18876;DHT22;9570;50.854;13.778;2023-06-10T01:41:40;15.30;99.90
18876;DHT22;9570;50.854;13.778;2023-06-10T01:44:05;15.20;99.90
18876;DHT22;9570;50.854;13.778;2023-06-10T01:46:31;15.20;99.90
18876;DHT22;9570;50.854;13.778;2023-06-10T01:48:56;15.20;99.90
18876;DHT22;9570;50.854;13.778;2023-06-10T01:51:22;15.20;99.90
18876;DHT22;9570;50.854;13.778;2023-06-10T01:53:47;15.20;99.90
18876;DHT22;9570;50.854;13.778;2023-06-10T01:56:13;15.20;99.90
18876;DHT22;9570;50.854;13.778;2023-06-10T01:58:44;15.30;99.90
18876;DHT22;9570;50.854;13.778;2023-06-10T02:01:10;15.30;99.90
18876;DHT22;9570;50.854;13.778;2023-06-10T02:03:36;15.30;99.90
18876;DHT22;9570;50.854;13.778;2023-06-10T02:06:01;15.20;99.90
18876;DHT22;9570;50.854;13.778;2023-06-10T02:08:27;15.30;99.90
18876;DHT22;9570;50.854;13.778;2023-06-10T02:10:55;15.20;99.90
18876;DHT22;9570;50.854;13.778;2023-06-10T02:13:21;15.20;99.90
18876;DHT22;9570;50.854;13.778;2023-06-10T02:15:46;15.20;99.90
18876;DHT22;9570;50.854;13.778;2023-06-10T02:18:12;15.20;99.90
18876;DHT22;9570;50.854;13.778;2023-06-10T02:20:40;15.20;99.90
18876;DHT22;9570;50.854;13.778;2023-06-10T02:23:06;15.20;99.90
18876;DHT22;9570;50.854;13.778;2023-06-10T02:25:31;15.10;99.90
18876;DHT22;9570;50.854;13.778;2023-06-10T02:27:56;15.00;99.90
18876;DHT22;9570;50.854;13.778;2023-06-10T02:30:22;15.00;99.90
18876;DHT22;9570;50.854;13.778;2023-06-10T02:32:47;15.00;99.90
18876;DHT22;9570;50.854;13.778;2023-06-10T02:35:17;14.90;99.90
18876;DHT22;9570;50.854;13.778;2023-06-10T02:37:43;15.00;99.90
18876;DHT22;9570;50.854;13.778;2023-06-10T02:40:09;15.00;99.90
18876;DHT22;9570;50.854;13.778;2023-06-10T02:42:34;14.90;99.90
18876;DHT22;9570;50.854;13.778;2023-06-10T02:45:00;14.80;99.90
18876;DHT22;9570;50.854;13.778;2023-06-10T02:47:26;14.80;99.90
18876;DHT22;9570;50.854;13.778;2023-06-10T02:49:51;14.80;99.90
18876;DHT22;9570;50.854;13.778;2023-06-10T02:52:17;14.80;99.90
18876;DHT22;9570;50.854;13.778;2023-06-10T02:54:42;14.80;99.90
18876;DHT22;9570;50.854;13.778;2023-06-10T02:57:08;14.70;99.90
18876;DHT22;9570;50.854;13.778;2023-06-10T02:59:35;14.70;99.90
18876;DHT22;9570;50.854;13.778;2023-06-10T03:02:00;14.70;99.90
18876;DHT22;9570;50.854;13.778;2023-06-10T03:04:26;14.70;99.90
18876;DHT22;9570;50.854;13.778;2023-06-10T03:06:54;14.60;99.90
18876;DHT22;9570;50.854;13.778;2023-06-10T03:09:20;14.60;99.90
18876;DHT22;9570;50.854;13.778;2023-06-10T03:11:45;14.50;99.90
18876;DHT22;9570;50.854;13.778;2023-06-10T03:14:11;14.40;99.90
18876;DHT22;9570;50.854;13.778;2023-06-10T03:16:36;14.40;99.90
18876;DHT22;9570;50.854;13.778;2023-06-10T03:19:06;14.40;99.90
18876;DHT22;9570;50.854;13.778;2023-06-10T03:21:31;14.30;99.90
18876;DHT22;9570;50.854;13.778;2023-06-10T03:23:57;14.20;99.90
18876;DHT22;9570;50.854;13.778;2023-06-10T03:26:22;14.30;99.90
18876;DHT22;9570;50.854;13.778;2023-06-10T03:28:48;14.30;99.90
18876;DHT22;9570;50.854;13.778;2023-06-10T03:31:14;14.30;99.90
18876;DHT22;9570;50.854;13.778;2023-06-10T03:33:42;14.30;99.90
18876;DHT22;9570;50.854;13.778;2023-06-10T03:36:07;14.30;99.90
18876;DHT22;9570;50.854;13.778;2023-06-10T03:38:33;14.30;99.90
18876;DHT22;9570;50.854;13.778;2023-06-10T03:40:58;14.20;99.90
18876;DHT22;9570;50.854;13.778;2023-06-10T03:43:24;14.30;99.90
18876;DHT22;9570;50.854;13.778;2023-06-10T03:45:49;14.30;99.90
18876;DHT22;9570;50.854;13.778;2023-06-10T03:48:15;14.30;99.90
18876;DHT22;9570;50.854;13.778;2023-06-10T03:50:40;14.30;99.90
18876;DHT22;9570;50.854;13.778;2023-06-10T03:53:06;14.30;99.90
18876;DHT22;9570;50.854;13.778;2023-06-10T03:55:31;14.20;99.90
18876;DHT22;9570;50.854;13.778;2023-06-10T03:57:57;14.30;99.90
18876;DHT22;9570;50.854;13.778;2023-06-10T04:00:23;14.30;99.90
18876;DHT22;9570;50.854;13.778;2023-06-10T04:02:48;14.30;99.90
18876;DHT22;9570;50.854;13.778;2023-06-10T04:05:16;14.40;99.90
18876;DHT22;9570;50.854;13.778;2023-06-10T04:07:43;14.40;99.90
18876;DHT22;9570;50.854;13.778;2023-06-10T04:10:10;14.40;99.90
18876;DHT22;9570;50.854;13.778;2023-06-10T04:12:36;14.40;99.90
18876;DHT22;9570;50.854;13.778;2023-06-10T04:15:05;14.40;99.90
18876;DHT22;9570;50.854;13.778;2023-06-10T04:17:31;14.50;99.90
18876;DHT22;9570;50.854;13.778;2023-06-10T04:19:57;14.50;99.90
18876;DHT22;9570;50.854;13.778;2023-06-10T04:22:23;14.50;99.90
18876;DHT22;9570;50.854;13.778;2023-06-10T04:24:49;14.60;99.90
18876;DHT22;9570;50.854;13.778;2023-06-10T04:27:14;14.60;99.90
18876;DHT22;9570;50.854;13.778;2023-06-10T04:29:40;14.60;99.90
18876;DHT22;9570;50.854;13.778;2023-06-10T04:32:06;14.60;99.90
18876;DHT22;9570;50.854;13.778;2023-06-10T04:34:33;14.70;99.90
18876;DHT22;9570;50.854;13.778;2023-06-10T04:36:58;14.70;99.90
18876;DHT22;9570;50.854;13.778;2023-06-10T04:39:24;14.70;99.90
18876;DHT22;9570;50.854;13.778;2023-06-10T04:41:49;14.70;99.90
18876;DHT22;9570;50.854;13.778;2023-06-10T04:44:15;14.70;99.90
18876;DHT22;9570;50.854;13.778;2023-06-10T04:46:40;14.80;99.90
18876;DHT22;9570;50.854;13.778;2023-06-10T04:49:06;14.80;99.90
18876;DHT22;9570;50.854;13.778;2023-06-10T04:51:31;14.90;99.90
18876;DHT22;9570;50.854;13.778;2023-06-10T04:53:58;14.90;99.90
18876;DHT22;9570;50.854;13.778;2023-06-10T04:56:23;15.00;99.90
18876;DHT22;9570;50.854;13.778;2023-06-10T04:58:49;14.90;99.90
18876;DHT22;9570;50.854;13.778;2023-06-10T05:01:15;15.00;99.90
18876;DHT22;9570;50.854;13.778;2023-06-10T05:03:40;15.00;99.90
18876;DHT22;9570;50.854;13.778;2023-06-10T05:06:06;15.10;99.90
18876;DHT22;9570;50.854;13.778;2023-06-10T05:08:31;15.10;99.90
18876;DHT22;9570;50.854;13.778;2023-06-10T05:10:57;15.20;99.90
18876;DHT22;9570;50.854;13.778;2023-06-10T05:13:23;15.30;99.90
18876;DHT22;9570;50.854;13.778;2023-06-10T05:15:49;15.30;99.90
18876;DHT22;9570;50.854;13.778;2023-06-10T05:18:14;15.30;99.90
18876;DHT22;9570;50.854;13.778;2023-06-10T05:20:39;15.40;99.90
18876;DHT22;9570;50.854;13.778;2023-06-10T05:23:05;15.40;99.90
18876;DHT22;9570;50.854;13.778;2023-06-10T05:25:32;15.50;99.90
18876;DHT22;9570;50.854;13.778;2023-06-10T05:27:58;15.50;99.90
18876;DHT22;9570;50.854;13.778;2023-06-10T05:30:24;15.60;99.90
18876;DHT22;9570;50.854;13.778;2023-06-10T05:32:50;15.70;99.90
18876;DHT22;9570;50.854;13.778;2023-06-10T05:35:16;15.90;99.90
18876;DHT22;9570;50.854;13.778;2023-06-10T05:37:42;15.90;99.90
18876;DHT22;9570;50.854;13.778;2023-06-10T05:40:08;16.10;99.90
18876;DHT22;9570;50.854;13.778;2023-06-10T05:42:34;16.10;99.90
18876;DHT22;9570;50.854;13.778;2023-06-10T05:44:59;16.30;99.90
18876;DHT22;9570;50.854;13.778;2023-06-10T05:47:25;16.50;99.90
18876;DHT22;9570;50.854;13.778;2023-06-10T05:49:50;17.10;99.90
18876;DHT22;9570;50.854;13.778;2023-06-10T05:52:17;18.30;99.90
18876;DHT22;9570;50.854;13.778;2023-06-10T05:54:42;19.50;99.90
18876;DHT22;9570;50.854;13.778;2023-06-10T05:57:08;20.50;99.90
18876;DHT22;9570;50.854;13.778;2023-06-10T05:59:34;21.60;99.90
18876;DHT22;9570;50.854;13.778;2023-06-10T06:01:59;22.40;99.90
18876;DHT22;9570;50.854;13.778;2023-06-10T06:04:25;23.00;99.90
18876;DHT22;9570;50.854;13.778;2023-06-10T06:06:50;23.70;99.90
18876;DHT22;9570;50.854;13.778;2023-06-10T06:09:15;24.30;99.90
18876;DHT22;9570;50.854;13.778;2023-06-10T06:11:41;24.90;99.90
18876;DHT22;9570;50.854;13.778;2023-06-10T06:14:06;25.30;99.90
18876;DHT22;9570;50.854;13.778;2023-06-10T06:16:32;25.80;99.90
18876;DHT22;9570;50.854;13.778;2023-06-10T06:18:58;26.10;99.90
18876;DHT22;9570;50.854;13.778;2023-06-10T06:21:23;26.20;99.90
18876;DHT22;9570;50.854;13.778;2023-06-10T06:23:49;26.60;99.90
18876;DHT22;9570;50.854;13.778;2023-06-10T06:26:14;26.90;99.90
18876;DHT22;9570;50.854;13.778;2023-06-10T06:28:40;27.10;99.90
18876;DHT22;9570;50.854;13.778;2023-06-10T06:31:05;27.00;99.90
18876;DHT22;9570;50.854;13.778;2023-06-10T06:33:31;27.30;99.90
18876;DHT22;9570;50.854;13.778;2023-06-10T06:35:57;27.60;99.90
18876;DHT22;9570;50.854;13.778;2023-06-10T06:38:22;28.10;99.90
18876;DHT22;9570;50.854;13.778;2023-06-10T06:40:48;27.60;99.90
18876;DHT22;9570;50.854;13.778;2023-06-10T06:43:13;26.60;99.90
18876;DHT22;9570;50.854;13.778;2023-06-10T06:45:39;26.40;99.90
18876;DHT22;9570;50.854;13.778;2023-06-10T06:48:05;26.90;99.90
18876;DHT22;9570;50.854;13.778;2023-06-10T06:50:30;27.00;99.90
18876;DHT22;9570;50.854;13.778;2023-06-10T06:52:56;26.90;99.90
18876;DHT22;9570;50.854;13.778;2023-06-10T06:55:21;26.70;99.90
18876;DHT22;9570;50.854;13.778;2023-06-10T06:57:47;26.20;99.90
18876;DHT22;9570;50.854;13.778;2023-06-10T07:00:12;25.40;99.90
18876;DHT22;9570;50.854;13.778;2023-06-10T07:02:38;24.80;99.90
18876;DHT22;9570;50.854;13.778;2023-06-10T07:05:04;24.40;99.90
18876;DHT22;9570;50.854;13.778;2023-06-10T07:07:30;24.30;99.90
18876;DHT22;9570;50.854;13.778;2023-06-10T07:09:56;24.30;99.90
18876;DHT22;9570;50.854;13.778;2023-06-10T07:12:21;24.10;99.90
18876;DHT22;9570;50.854;13.778;2023-06-10T07:14:49;23.80;99.90
18876;DHT22;9570;50.854;13.778;2023-06-10T07:17:16;23.30;99.90
18876;DHT22;9570;50.854;13.778;2023-06-10T07:19:42;22.90;99.90
18876;DHT22;9570;50.854;13.778;2023-06-10T07:22:08;22.20;99.90
18876;DHT22;9570;50.854;13.778;2023-06-10T07:24:34;21.90;99.90
18876;DHT22;9570;50.854;13.778;2023-06-10T07:26:59;22.00;99.90
18876;DHT22;9570;50.854;13.778;2023-06-10T07:29:25;22.00;99.90
18876;DHT22;9570;50.854;13.778;2023-06-10T07:31:50;22.20;99.90
18876;DHT22;9570;50.854;13.778;2023-06-10T07:34:16;22.30;99.90
18876;DHT22;9570;50.854;13.778;2023-06-10T07:36:41;22.30;99.90
18876;DHT22;9570;50.854;13.778;2023-06-10T07:39:06;22.20;99.90
18876;DHT22;9570;50.854;13.778;2023-06-10T07:41:33;22.10;99.90
18876;DHT22;9570;50.854;13.778;2023-06-10T07:43:58;22.10;99.90
18876;DHT22;9570;50.854;13.778;2023-06-10T07:46:24;22.00;99.90
18876;DHT22;9570;50.854;13.778;2023-06-10T07:48:51;21.90;99.90
18876;DHT22;9570;50.854;13.778;2023-06-10T07:51:17;21.80;99.90
18876;DHT22;9570;50.854;13.778;2023-06-10T07:53:42;21.70;99.90
18876;DHT22;9570;50.854;13.778;2023-06-10T07:56:08;21.50;99.90
18876;DHT22;9570;50.854;13.778;2023-06-10T07:58:33;21.30;99.90
18876;DHT22;9570;50.854;13.778;2023-06-10T08:00:59;20.90;99.90
18876;DHT22;9570;50.854;13.778;2023-06-10T08:03:24;20.70;99.90
18876;DHT22;9570;50.854;13.778;2023-06-10T08:05:50;20.60;99.90
18876;DHT22;9570;50.854;13.778;2023-06-10T08:08:15;20.50;99.90
18876;DHT22;9570;50.854;13.778;2023-06-10T08:10:41;20.70;99.90
18876;DHT22;9570;50.854;13.778;2023-06-10T08:13:07;20.80;99.90
18876;DHT22;9570;50.854;13.778;2023-06-10T08:15:33;20.90;99.90
18876;DHT22;9570;50.854;13.778;2023-06-10T08:17:59;20.90;99.90
18876;DHT22;9570;50.854;13.778;2023-06-10T08:20:24;20.90;99.90
18876;DHT22;9570;50.854;13.778;2023-06-10T08:22:50;21.10;99.90
18876;DHT22;9570;50.854;13.778;2023-06-10T08:25:15;21.00;99.90
18876;DHT22;9570;50.854;13.778;2023-06-10T08:27:41;20.90;99.90
18876;DHT22;9570;50.854;13.778;2023-06-10T08:30:07;20.50;99.90
18876;DHT22;9570;50.854;13.778;2023-06-10T08:32:33;20.40;99.90
18876;DHT22;9570;50.854;13.778;2023-06-10T08:34:58;20.60;99.90
18876;DHT22;9570;50.854;13.778;2023-06-10T08:37:24;20.60;99.90
18876;DHT22;9570;50.854;13.778;2023-06-10T08:39:49;20.60;99.90
18876;DHT22;9570;50.854;13.778;2023-06-10T08:42:40;20.70;99.90
18876;DHT22;9570;50.854;13.778;2023-06-10T08:45:07;20.80;99.90
18876;DHT22;9570;50.854;13.778;2023-06-10T08:47:35;20.80;99.90
18876;DHT22;9570;50.854;13.778;2023-06-10T08:50:04;21.00;99.90
18876;DHT22;9570;50.854;13.778;2023-06-10T08:52:35;21.20;99.90
18876;DHT22;9570;50.854;13.778;2023-06-10T08:55:23;21.60;99.90
18876;DHT22;9570;50.854;13.778;2023-06-10T08:57:52;22.10;99.90
18876;DHT22;9570;50.854;13.778;2023-06-10T09:00:19;22.10;99.90
18876;DHT22;9570;50.854;13.778;2023-06-10T09:02:45;22.30;99.90
18876;DHT22;9570;50.854;13.778;2023-06-10T09:05:11;22.10;99.90
18876;DHT22;9570;50.854;13.778;2023-06-10T09:07:37;21.70;99.90
18876;DHT22;9570;50.854;13.778;2023-06-10T09:10:04;21.80;99.90
18876;DHT22;9570;50.854;13.778;2023-06-10T09:12:33;22.00;99.90
18876;DHT22;9570;50.854;13.778;2023-06-10T09:14:59;21.90;99.90
18876;DHT22;9570;50.854;13.778;2023-06-10T09:17:25;21.40;99.90
18876;DHT22;9570;50.854;13.778;2023-06-10T09:19:52;21.30;99.90
18876;DHT22;9570;50.854;13.778;2023-06-10T09:22:19;21.20;99.90
18876;DHT22;9570;50.854;13.778;2023-06-10T09:24:46;21.20;99.90
18876;DHT22;9570;50.854;13.778;2023-06-10T09:27:11;21.20;99.90
18876;DHT22;9570;50.854;13.778;2023-06-10T09:29:55;21.30;99.90
18876;DHT22;9570;50.854;13.778;2023-06-10T09:32:23;21.60;99.90
18876;DHT22;9570;50.854;13.778;2023-06-10T09:34:49;21.90;99.90
18876;DHT22;9570;50.854;13.778;2023-06-10T09:37:23;22.10;99.90
18876;DHT22;9570;50.854;13.778;2023-06-10T09:40:07;22.50;99.90
18876;DHT22;9570;50.854;13.778;2023-06-10T09:42:34;23.10;99.90
18876;DHT22;9570;50.854;13.778;2023-06-10T09:45:01;23.90;99.90
18876;DHT22;9570;50.854;13.778;2023-06-10T09:47:27;24.00;99.90
18876;DHT22;9570;50.854;13.778;2023-06-10T09:49:52;24.20;99.90
18876;DHT22;9570;50.854;13.778;2023-06-10T09:52:26;24.50;99.90
18876;DHT22;9570;50.854;13.778;2023-06-10T09:54:52;24.50;99.90
18876;DHT22;9570;50.854;13.778;2023-06-10T09:57:19;24.50;99.90
18876;DHT22;9570;50.854;13.778;2023-06-10T09:59:45;25.10;99.90
18876;DHT22;9570;50.854;13.778;2023-06-10T10:02:17;25.30;99.90
18876;DHT22;9570;50.854;13.778;2023-06-10T10:04:44;25.40;99.90
18876;DHT22;9570;50.854;13.778;2023-06-10T10:07:10;25.90;99.90
18876;DHT22;9570;50.854;13.778;2023-06-10T10:09:37;26.30;99.90
18876;DHT22;9570;50.854;13.778;2023-06-10T10:12:14;26.40;99.90
18876;DHT22;9570;50.854;13.778;2023-06-10T10:14:45;26.60;99.90
18876;DHT22;9570;50.854;13.778;2023-06-10T10:17:11;26.80;99.90
18876;DHT22;9570;50.854;13.778;2023-06-10T10:19:48;27.00;99.90
18876;DHT22;9570;50.854;13.778;2023-06-10T10:22:20;26.70;99.90
18876;DHT22;9570;50.854;13.778;2023-06-10T10:24:52;26.90;99.90
18876;DHT22;9570;50.854;13.778;2023-06-10T10:27:25;26.50;99.90
18876;DHT22;9570;50.854;13.778;2023-06-10T10:29:52;26.00;99.90
18876;DHT22;9570;50.854;13.778;2023-06-10T10:32:26;25.80;99.90
18876;DHT22;9570;50.854;13.778;2023-06-10T10:35:08;25.20;99.90
18876;DHT22;9570;50.854;13.778;2023-06-10T10:37:35;25.10;99.90
18876;DHT22;9570;50.854;13.778;2023-06-10T10:40:01;25.30;99.90
18876;DHT22;9570;50.854;13.778;2023-06-10T10:42:27;25.50;99.90
18876;DHT22;9570;50.854;13.778;2023-06-10T10:44:53;25.50;99.90
18876;DHT22;9570;50.854;13.778;2023-06-10T10:47:21;25.40;99.90
18876;DHT22;9570;50.854;13.778;2023-06-10T10:49:50;25.50;99.90
18876;DHT22;9570;50.854;13.778;2023-06-10T10:52:17;25.30;99.90
18876;DHT22;9570;50.854;13.778;2023-06-10T10:54:46;24.90;99.90
18876;DHT22;9570;50.854;13.778;2023-06-10T10:57:20;24.70;99.90
18876;DHT22;9570;50.854;13.778;2023-06-10T11:02:37;24.50;99.90
18876;DHT22;9570;50.854;13.778;2023-06-10T11:05:06;24.40;99.90
18876;DHT22;9570;50.854;13.778;2023-06-10T11:07:33;24.30;99.90
18876;DHT22;9570;50.854;13.778;2023-06-10T11:10:01;24.50;99.90
18876;DHT22;9570;50.854;13.778;2023-06-10T11:12:50;24.70;99.90
18876;DHT22;9570;50.854;13.778;2023-06-10T11:15:19;24.90;99.90
18876;DHT22;9570;50.854;13.778;2023-06-10T11:18:08;24.70;99.90
18876;DHT22;9570;50.854;13.778;2023-06-10T11:26:13;24.60;99.90
18876;DHT22;9570;50.854;13.778;2023-06-10T11:28:39;24.60;99.90
18876;DHT22;9570;50.854;13.778;2023-06-10T11:31:05;24.70;99.90
18876;DHT22;9570;50.854;13.778;2023-06-10T11:33:31;24.80;99.90
18876;DHT22;9570;50.854;13.778;2023-06-10T11:35:57;24.70;99.90
18876;DHT22;9570;50.854;13.778;2023-06-10T11:38:24;24.60;99.90
18876;DHT22;9570;50.854;13.778;2023-06-10T11:40:53;24.50;99.90
18876;DHT22;9570;50.854;13.778;2023-06-10T11:43:19;24.40;99.90
18876;DHT22;9570;50.854;13.778;2023-06-10T11:45:45;24.40;99.90
18876;DHT22;9570;50.854;13.778;2023-06-10T11:48:12;24.50;99.90
18876;DHT22;9570;50.854;13.778;2023-06-10T11:50:37;24.60;99.90
18876;DHT22;9570;50.854;13.778;2023-06-10T11:53:03;24.50;99.90
18876;DHT22;9570;50.854;13.778;2023-06-10T11:55:50;24.50;99.90
18876;DHT22;9570;50.854;13.778;2023-06-10T11:58:17;24.60;99.90
18876;DHT22;9570;50.854;13.778;2023-06-10T12:00:47;24.60;99.90
18876;DHT22;9570;50.854;13.778;2023-06-10T12:03:12;24.40;99.90
18876;DHT22;9570;50.854;13.778;2023-06-10T12:05:38;24.40;99.90
18876;DHT22;9570;50.854;13.778;2023-06-10T12:08:10;24.50;99.90
18876;DHT22;9570;50.854;13.778;2023-06-10T12:10:40;24.50;99.90
18876;DHT22;9570;50.854;13.778;2023-06-10T12:13:08;24.50;99.90
18876;DHT22;9570;50.854;13.778;2023-06-10T12:15:34;24.50;99.90
18876;DHT22;9570;50.854;13.778;2023-06-10T12:17:59;24.60;99.90
18876;DHT22;9570;50.854;13.778;2023-06-10T12:20:32;24.70;99.90
18876;DHT22;9570;50.854;13.778;2023-06-10T12:23:00;24.70;99.90
18876;DHT22;9570;50.854;13.778;2023-06-10T12:25:29;24.70;99.90
18876;DHT22;9570;50.854;13.778;2023-06-10T12:27:57;24.80;99.90
18876;DHT22;9570;50.854;13.778;2023-06-10T12:30:27;24.80;99.90
18876;DHT22;9570;50.854;13.778;2023-06-10T12:32:53;24.80;99.90
18876;DHT22;9570;50.854;13.778;2023-06-10T12:35:28;24.90;99.90
18876;DHT22;9570;50.854;13.778;2023-06-10T12:38:04;24.90;99.90
18876;DHT22;9570;50.854;13.778;2023-06-10T12:40:33;24.80;99.90
18876;DHT22;9570;50.854;13.778;2023-06-10T12:43:00;24.90;99.90
18876;DHT22;9570;50.854;13.778;2023-06-10T12:45:36;25.00;99.90
18876;DHT22;9570;50.854;13.778;2023-06-10T12:50:39;25.00;99.90
18876;DHT22;9570;50.854;13.778;2023-06-10T12:53:05;25.00;99.90
18876;DHT22;9570;50.854;13.778;2023-06-10T12:55:31;24.80;99.90
18876;DHT22;9570;50.854;13.778;2023-06-10T12:57:57;24.70;99.90
18876;DHT22;9570;50.854;13.778;2023-06-10T13:00:23;24.80;99.90
18876;DHT22;9570;50.854;13.778;2023-06-10T13:02:51;24.80;99.90
18876;DHT22;9570;50.854;13.778;2023-06-10T13:05:18;24.80;99.90
18876;DHT22;9570;50.854;13.778;2023-06-10T13:07:44;24.80;99.90
18876;DHT22;9570;50.854;13.778;2023-06-10T13:10:10;24.90;99.90
18876;DHT22;9570;50.854;13.778;2023-06-10T13:15:03;24.70;99.90
18876;DHT22;9570;50.854;13.778;2023-06-10T13:17:29;24.70;99.90
18876;DHT22;9570;50.854;13.778;2023-06-10T13:19:54;24.80;99.90
18876;DHT22;9570;50.854;13.778;2023-06-10T13:22:20;24.80;99.90
18876;DHT22;9570;50.854;13.778;2023-06-10T13:24:46;24.80;99.90
18876;DHT22;9570;50.854;13.778;2023-06-10T13:27:12;24.70;99.90
18876;DHT22;9570;50.854;13.778;2023-06-10T13:29:39;24.60;99.90
18876;DHT22;9570;50.854;13.778;2023-06-10T13:32:05;24.50;99.90
18876;DHT22;9570;50.854;13.778;2023-06-10T13:34:31;24.50;99.90
18876;DHT22;9570;50.854;13.778;2023-06-10T13:36:56;24.50;99.90
18876;DHT22;9570;50.854;13.778;2023-06-10T13:39:22;24.60;99.90
18876;DHT22;9570;50.854;13.778;2023-06-10T13:41:47;24.70;99.90
18876;DHT22;9570;50.854;13.778;2023-06-10T13:44:13;24.80;99.90
18876;DHT22;9570;50.854;13.778;2023-06-10T13:46:38;24.80;99.90
18876;DHT22;9570;50.854;13.778;2023-06-10T13:49:04;24.90;99.90
18876;DHT22;9570;50.854;13.778;2023-06-10T13:51:29;24.80;99.90
18876;DHT22;9570;50.854;13.778;2023-06-10T13:53:55;24.90;99.90
18876;DHT22;9570;50.854;13.778;2023-06-10T13:56:20;24.90;99.90
18876;DHT22;9570;50.854;13.778;2023-06-10T13:58:45;24.80;99.90
18876;DHT22;9570;50.854;13.778;2023-06-10T14:01:11;24.80;99.90
18876;DHT22;9570;50.854;13.778;2023-06-10T14:03:36;24.90;99.90
18876;DHT22;9570;50.854;13.778;2023-06-10T14:06:02;24.90;99.90
18876;DHT22;9570;50.854;13.778;2023-06-10T14:08:28;25.00;99.90
18876;DHT22;9570;50.854;13.778;2023-06-10T14:10:53;24.90;99.90
18876;DHT22;9570;50.854;13.778;2023-06-10T14:13:19;24.90;99.90
18876;DHT22;9570;50.854;13.778;2023-06-10T14:15:44;24.80;99.90
18876;DHT22;9570;50.854;13.778;2023-06-10T14:18:10;24.70;99.90
18876;DHT22;9570;50.854;13.778;2023-06-10T14:20:36;24.70;99.90
18876;DHT22;9570;50.854;13.778;2023-06-10T14:23:02;24.80;99.90
18876;DHT22;9570;50.854;13.778;2023-06-10T14:25:27;24.80;99.90
18876;DHT22;9570;50.854;13.778;2023-06-10T14:27:53;24.80;99.90
18876;DHT22;9570;50.854;13.778;2023-06-10T14:30:19;24.80;99.90
18876;DHT22;9570;50.854;13.778;2023-06-10T14:32:44;24.80;99.90
18876;DHT22;9570;50.854;13.778;2023-06-10T14:35:10;24.80;99.90
18876;DHT22;9570;50.854;13.778;2023-06-10T14:37:36;24.70;99.90
18876;DHT22;9570;50.854;13.778;2023-06-10T14:40:03;24.70;99.90
18876;DHT22;9570;50.854;13.778;2023-06-10T14:42:29;24.70;99.90
18876;DHT22;9570;50.854;13.778;2023-06-10T14:44:54;24.70;99.90
18876;DHT22;9570;50.854;13.778;2023-06-10T14:47:20;24.60;99.90
18876;DHT22;9570;50.854;13.778;2023-06-10T14:49:45;24.70;99.90
18876;DHT22;9570;50.854;13.778;2023-06-10T14:52:10;24.70;99.90
18876;DHT22;9570;50.854;13.778;2023-06-10T14:54:36;24.70;99.90
18876;DHT22;9570;50.854;13.778;2023-06-10T14:57:01;24.70;99.90
18876;DHT22;9570;50.854;13.778;2023-06-10T14:59:27;24.70;99.90
18876;DHT22;9570;50.854;13.778;2023-06-10T15:01:53;24.70;99.90
18876;DHT22;9570;50.854;13.778;2023-06-10T15:04:18;24.70;99.90
18876;DHT22;9570;50.854;13.778;2023-06-10T15:06:44;24.70;99.90
18876;DHT22;9570;50.854;13.778;2023-06-10T15:09:09;24.70;99.90
18876;DHT22;9570;50.854;13.778;2023-06-10T15:11:35;24.70;99.90
18876;DHT22;9570;50.854;13.778;2023-06-10T15:14:01;24.70;99.90
18876;DHT22;9570;50.854;13.778;2023-06-10T15:16:27;24.70;99.90
18876;DHT22;9570;50.854;13.778;2023-06-10T15:18:52;24.60;99.90
18876;DHT22;9570;50.854;13.778;2023-06-10T15:21:18;24.60;99.90
18876;DHT22;9570;50.854;13.778;2023-06-10T15:23:43;24.60;99.90
18876;DHT22;9570;50.854;13.778;2023-06-10T15:26:08;24.60;99.90
18876;DHT22;9570;50.854;13.778;2023-06-10T15:28:34;24.60;99.90
18876;DHT22;9570;50.854;13.778;2023-06-10T15:30:59;24.60;99.90
18876;DHT22;9570;50.854;13.778;2023-06-10T15:33:25;24.40;99.90
18876;DHT22;9570;50.854;13.778;2023-06-10T15:35:50;24.40;99.90
18876;DHT22;9570;50.854;13.778;2023-06-10T15:38:17;24.50;99.90
18876;DHT22;9570;50.854;13.778;2023-06-10T15:40:43;24.40;99.90
18876;DHT22;9570;50.854;13.778;2023-06-10T15:43:08;24.40;99.90